createdAt,value
2019-03-13T00:01:55.469Z,88.46
2019-03-13T00:04:21.782Z,87.94
2019-03-13T00:06:48.096Z,87.37
2019-03-13T00:09:14.397Z,86.95
2019-03-13T00:11:40.712Z,86.75
2019-03-13T00:14:07.018Z,88.91
2019-03-13T00:16:33.350Z,91.15
2019-03-13T00:18:59.657Z,90.91
2019-03-13T00:21:25.964Z,89.46
2019-03-13T00:23:52.270Z,88.30
2019-03-13T00:26:18.585Z,87.38
2019-03-13T00:28:44.889Z,86.55
2019-03-13T00:31:11.192Z,85.82
2019-03-13T00:33:37.502Z,85.24
2019-03-13T00:36:03.804Z,84.66
2019-03-13T00:38:30.145Z,84.19
2019-03-13T00:40:56.455Z,83.91
2019-03-13T00:43:22.769Z,83.57
2019-03-13T00:45:49.068Z,83.25
2019-03-13T00:48:15.370Z,83.04
2019-03-13T00:50:41.700Z,82.79
2019-03-13T00:53:08.010Z,82.58
2019-03-13T00:55:34.319Z,83.38
2019-03-13T00:58:00.638Z,85.90
2019-03-13T01:00:26.938Z,88.22
2019-03-13T01:02:53.249Z,89.97
2019-03-13T01:05:19.547Z,89.04
2019-03-13T01:07:45.855Z,87.69
2019-03-13T01:10:12.156Z,86.44
2019-03-13T01:12:38.462Z,85.54
2019-03-13T01:15:04.779Z,84.78
2019-03-13T01:17:31.108Z,84.27
2019-03-13T01:19:57.418Z,83.80
2019-03-13T01:22:23.735Z,83.38
2019-03-13T01:24:50.052Z,83.05
2019-03-13T01:27:16.347Z,82.70
2019-03-13T01:29:42.657Z,82.57
2019-03-13T01:32:08.959Z,82.36
2019-03-13T01:34:35.274Z,82.09
2019-03-13T01:37:01.584Z,81.88
2019-03-13T01:39:27.921Z,81.77
2019-03-13T01:41:54.228Z,82.97
2019-03-13T01:44:20.536Z,85.39
2019-03-13T01:46:46.852Z,87.54
2019-03-13T01:49:13.168Z,89.03
2019-03-13T01:51:39.479Z,88.09
2019-03-13T01:54:05.785Z,86.68
2019-03-13T01:56:32.123Z,85.53
2019-03-13T01:58:58.426Z,84.67
2019-03-13T02:01:24.739Z,84.05
2019-03-13T02:03:51.053Z,83.57
2019-03-13T02:06:17.366Z,83.12
2019-03-13T02:08:43.674Z,82.79
2019-03-13T02:11:09.979Z,82.60
2019-03-13T02:13:36.311Z,82.21
2019-03-13T02:16:02.619Z,81.97
2019-03-13T02:18:28.948Z,81.66
2019-03-13T02:20:55.252Z,81.42
2019-03-13T02:23:21.555Z,81.13
2019-03-13T02:25:47.861Z,81.01
2019-03-13T02:28:14.186Z,82.57
2019-03-13T02:30:40.503Z,85.10
2019-03-13T02:33:06.794Z,87.24
2019-03-13T02:35:33.115Z,88.47
2019-03-13T02:37:59.432Z,87.48
2019-03-13T02:40:25.736Z,86.25
2019-03-13T02:42:52.043Z,85.16
2019-03-13T02:45:18.367Z,84.26
2019-03-13T02:47:44.680Z,83.69
2019-03-13T02:50:10.996Z,83.14
2019-03-13T02:52:37.394Z,82.79
2019-03-13T02:55:03.625Z,82.45
2019-03-13T02:57:29.924Z,82.15
2019-03-13T02:59:56.234Z,81.88
2019-03-13T03:02:22.558Z,81.72
2019-03-13T03:04:48.856Z,81.53
2019-03-13T03:07:15.184Z,81.46
2019-03-13T03:09:41.489Z,81.44
2019-03-13T03:12:07.825Z,81.46
2019-03-13T03:14:34.131Z,83.50
2019-03-13T03:17:00.435Z,86.11
2019-03-13T03:19:26.754Z,88.45
2019-03-13T03:21:53.063Z,89.72
2019-03-13T03:24:19.369Z,88.82
2019-03-13T03:26:45.667Z,87.70
2019-03-13T03:29:12.009Z,86.79
2019-03-13T03:31:38.312Z,86.27
2019-03-13T03:34:04.645Z,85.81
2019-03-13T03:36:30.946Z,85.57
2019-03-13T03:38:57.240Z,85.25
2019-03-13T03:41:23.540Z,85.14
2019-03-13T03:43:49.865Z,85.13
2019-03-13T03:46:16.176Z,85.00
2019-03-13T03:48:42.476Z,84.95
2019-03-13T03:51:08.804Z,85.00
2019-03-13T03:53:35.114Z,84.88
2019-03-13T03:56:01.413Z,84.86
2019-03-13T03:58:29.620Z,85.15
2019-03-13T04:00:54.042Z,87.30
2019-03-13T04:03:20.358Z,90.09
2019-03-13T04:05:46.668Z,92.82
2019-03-13T04:08:12.979Z,94.02
2019-03-13T04:10:39.301Z,92.64
2019-03-13T04:13:05.607Z,91.34
2019-03-13T04:15:31.931Z,89.94
2019-03-13T04:17:58.265Z,88.94
2019-03-13T04:20:24.569Z,88.12
2019-03-13T04:22:50.888Z,87.51
2019-03-13T04:25:17.197Z,86.97
2019-03-13T04:27:43.509Z,86.49
2019-03-13T04:30:09.828Z,86.12
2019-03-13T04:32:36.132Z,85.71
2019-03-13T04:35:02.475Z,85.38
2019-03-13T04:37:28.778Z,85.05
2019-03-13T04:39:55.078Z,84.62
2019-03-13T04:42:21.388Z,84.42
2019-03-13T04:44:47.704Z,84.64
2019-03-13T04:47:14.016Z,87.11
2019-03-13T04:49:40.331Z,89.73
2019-03-13T04:52:06.677Z,92.44
2019-03-13T04:54:32.947Z,92.49
2019-03-13T04:56:59.281Z,90.81
2019-03-13T04:59:25.585Z,89.29
2019-03-13T05:01:51.892Z,88.02
2019-03-13T05:04:18.204Z,86.95
2019-03-13T05:06:44.503Z,86.16
2019-03-13T05:09:10.830Z,85.40
2019-03-13T05:11:37.130Z,84.99
2019-03-13T05:14:03.433Z,84.52
2019-03-13T05:16:29.747Z,84.10
2019-03-13T05:18:56.055Z,83.66
2019-03-13T05:21:22.367Z,83.28
2019-03-13T05:23:48.667Z,82.97
2019-03-13T05:26:14.985Z,82.71
2019-03-13T05:28:41.309Z,82.46
2019-03-13T05:31:07.640Z,83.10
2019-03-13T05:33:33.948Z,85.87
2019-03-13T05:36:00.256Z,88.73
2019-03-13T05:38:26.570Z,91.46
2019-03-13T05:40:52.880Z,90.98
2019-03-13T05:43:19.183Z,89.39
2019-03-13T05:45:45.495Z,97.59
2019-03-13T05:48:11.811Z,100.00
2019-03-13T05:50:38.113Z,100.00
2019-03-13T05:53:04.442Z,100.00
2019-03-13T05:55:30.762Z,100.00
2019-03-13T05:57:57.061Z,100.00
2019-03-13T06:00:23.378Z,100.00
2019-03-13T06:02:49.681Z,100.00
2019-03-13T06:05:15.995Z,100.00
2019-03-13T06:07:42.305Z,100.00
2019-03-13T06:10:08.639Z,100.00
2019-03-13T06:12:34.954Z,100.00
2019-03-13T06:15:03.558Z,99.96
2019-03-13T06:17:27.583Z,99.08
2019-03-13T06:19:53.896Z,98.42
2019-03-13T06:22:20.211Z,97.79
2019-03-13T06:24:46.526Z,97.42
2019-03-13T06:27:12.835Z,97.12
2019-03-13T06:29:39.144Z,96.88
2019-03-13T06:32:05.593Z,96.68
2019-03-13T06:34:31.921Z,96.10
2019-03-13T06:36:58.223Z,95.81
2019-03-13T06:39:24.568Z,97.72
2019-03-13T06:41:50.872Z,100.00
2019-03-13T06:44:17.175Z,100.00
2019-03-13T06:46:43.490Z,100.00
2019-03-13T06:49:09.805Z,100.00
2019-03-13T06:51:36.133Z,100.00
2019-03-13T06:54:02.441Z,100.00
2019-03-13T06:56:28.968Z,99.81
2019-03-13T06:58:55.280Z,99.28
2019-03-13T07:01:21.590Z,98.49
2019-03-13T07:03:47.890Z,98.19
2019-03-13T07:06:14.494Z,97.91
2019-03-13T07:08:40.804Z,97.70
2019-03-13T07:11:07.114Z,97.12
2019-03-13T07:13:33.421Z,96.88
2019-03-13T07:15:59.785Z,95.92
2019-03-13T07:18:26.084Z,95.33
2019-03-13T07:20:52.419Z,94.96
2019-03-13T07:23:18.782Z,94.66
2019-03-13T07:25:45.120Z,94.03
2019-03-13T07:28:11.436Z,93.37
2019-03-13T07:30:37.735Z,92.67
2019-03-13T07:33:04.113Z,92.11
2019-03-13T07:35:30.434Z,91.41
2019-03-13T07:37:56.748Z,90.84
2019-03-13T07:40:23.063Z,90.16
2019-03-13T07:42:49.366Z,89.52
2019-03-13T07:45:15.690Z,88.73
2019-03-13T07:47:41.999Z,88.15
2019-03-13T07:50:08.307Z,88.39
2019-03-13T07:52:34.786Z,93.61
2019-03-13T07:55:01.135Z,98.56
2019-03-13T07:57:27.443Z,100.00
2019-03-13T07:59:53.759Z,100.00
2019-03-13T08:02:20.068Z,100.00
2019-03-13T08:04:46.376Z,97.12
2019-03-13T08:07:12.692Z,95.03
2019-03-13T08:09:39.011Z,92.94
2019-03-13T08:12:05.339Z,90.21
2019-03-13T08:14:31.673Z,89.38
2019-03-13T08:16:57.988Z,88.51
2019-03-13T08:19:24.692Z,87.13
2019-03-13T08:21:50.626Z,86.47
2019-03-13T08:24:16.936Z,85.57
2019-03-13T08:26:43.321Z,85.00
2019-03-13T08:29:09.631Z,84.11
2019-03-13T08:31:35.939Z,83.19
2019-03-13T08:34:02.304Z,82.41
2019-03-13T08:36:28.728Z,85.72
2019-03-13T08:38:55.034Z,90.32
2019-03-13T08:41:21.344Z,91.54
2019-03-13T08:43:47.657Z,89.34
2019-03-13T08:46:13.964Z,86.75
2019-03-13T08:48:40.288Z,85.20
2019-03-13T08:51:06.603Z,84.28
2019-03-13T08:53:32.920Z,82.88
2019-03-13T08:55:59.228Z,81.90
2019-03-13T08:58:25.541Z,80.23
2019-03-13T09:00:51.856Z,80.18
2019-03-13T09:03:18.185Z,85.19
2019-03-13T09:05:44.469Z,90.41
2019-03-13T09:08:10.780Z,93.78
2019-03-13T09:10:37.111Z,95.46
2019-03-13T09:13:03.432Z,91.74
2019-03-13T09:15:29.794Z,90.05
2019-03-13T09:17:56.066Z,86.74
2019-03-13T09:20:22.376Z,84.22
2019-03-13T09:22:48.722Z,82.91
2019-03-13T09:25:14.996Z,83.62
2019-03-13T09:27:41.308Z,88.28
2019-03-13T09:30:07.614Z,92.75
2019-03-13T09:32:33.937Z,90.85
2019-03-13T09:35:00.369Z,88.03
2019-03-13T09:37:26.572Z,86.01
2019-03-13T09:39:52.878Z,84.77
2019-03-13T09:42:19.202Z,83.98
2019-03-13T09:44:45.506Z,87.79
2019-03-13T09:47:11.812Z,92.07
2019-03-13T09:49:38.124Z,95.71
2019-03-13T09:52:04.431Z,98.56
2019-03-13T09:54:30.742Z,100.00
2019-03-13T09:56:57.047Z,100.00
2019-03-13T09:59:23.416Z,100.00
2019-03-13T10:01:49.734Z,100.00
2019-03-13T10:04:16.046Z,100.00
2019-03-13T10:06:42.426Z,100.00
2019-03-13T10:09:08.746Z,100.00
2019-03-13T10:11:35.111Z,100.00
2019-03-13T10:14:01.417Z,100.00
2019-03-13T10:16:27.763Z,100.00
2019-03-13T10:18:54.066Z,100.00
2019-03-13T10:21:20.382Z,100.00
2019-03-13T10:23:46.694Z,100.00
2019-03-13T10:26:13.009Z,100.00
2019-03-13T10:28:39.335Z,100.00
2019-03-13T10:31:05.642Z,100.00
2019-03-13T10:33:31.955Z,100.00
2019-03-13T10:35:58.281Z,100.00
2019-03-13T10:38:24.588Z,100.00
2019-03-13T10:40:50.921Z,100.00
2019-03-13T10:43:17.229Z,100.00
2019-03-13T10:45:43.565Z,96.86
2019-03-13T10:48:09.875Z,92.93
2019-03-13T10:50:36.191Z,90.61
2019-03-13T10:53:02.495Z,88.43
2019-03-13T10:55:28.818Z,86.48
2019-03-13T10:57:55.201Z,84.19
2019-03-13T11:00:21.550Z,88.05
2019-03-13T11:02:47.865Z,91.89
2019-03-13T11:05:14.190Z,95.21
2019-03-13T11:07:40.501Z,96.67
2019-03-13T11:10:06.809Z,97.77
2019-03-13T11:12:33.135Z,99.43
2019-03-13T11:14:59.446Z,100.00
2019-03-13T11:17:25.780Z,100.00
2019-03-13T11:19:52.092Z,100.00
2019-03-13T11:22:18.406Z,100.00
2019-03-13T11:24:44.718Z,100.00
2019-03-13T11:27:11.050Z,100.00
2019-03-13T11:29:37.376Z,100.00
2019-03-13T11:32:03.689Z,100.00
2019-03-13T11:34:30.011Z,100.00
2019-03-13T11:36:56.519Z,100.00
2019-03-13T11:39:24.066Z,100.00
2019-03-13T11:41:49.127Z,100.00
2019-03-13T11:44:15.456Z,99.80
2019-03-13T11:46:41.764Z,99.57
2019-03-13T11:49:08.075Z,99.82
2019-03-13T11:51:34.397Z,99.44
2019-03-13T11:54:00.691Z,99.50
2019-03-13T11:56:27.001Z,96.92
2019-03-13T11:58:53.310Z,91.48
2019-03-13T12:01:19.619Z,88.16
2019-03-13T12:03:45.919Z,85.53
2019-03-13T12:06:12.293Z,83.54
2019-03-13T12:08:38.585Z,81.87
2019-03-13T12:11:04.918Z,80.51
2019-03-13T12:13:31.229Z,79.07
2019-03-13T12:15:57.539Z,77.95
2019-03-13T12:18:23.855Z,76.84
2019-03-13T12:20:50.161Z,76.25
2019-03-13T12:23:16.478Z,75.42
2019-03-13T12:25:42.779Z,75.30
2019-03-13T12:28:09.355Z,74.14
2019-03-13T12:30:35.645Z,74.35
2019-03-13T12:33:01.963Z,74.05
2019-03-13T12:35:28.278Z,74.05
2019-03-13T12:37:54.588Z,72.93
2019-03-13T12:40:20.898Z,72.59
2019-03-13T12:42:47.209Z,72.07
2019-03-13T12:45:13.517Z,72.53
2019-03-13T12:47:39.830Z,72.06
2019-03-13T12:50:07.955Z,71.66
2019-03-13T12:52:34.225Z,71.61
2019-03-13T12:55:02.204Z,71.11
2019-03-13T12:57:26.888Z,70.92
2019-03-13T12:59:53.202Z,69.45
2019-03-13T13:02:19.529Z,68.26
2019-03-13T13:04:45.853Z,68.75
2019-03-13T13:07:12.189Z,68.90
2019-03-13T13:09:38.498Z,68.42
2019-03-13T13:12:04.800Z,66.92
2019-03-13T13:14:31.123Z,67.20
2019-03-13T13:16:57.431Z,67.55
2019-03-13T13:19:23.737Z,67.31
2019-03-13T13:21:50.057Z,66.81
2019-03-13T13:24:16.354Z,66.27
2019-03-13T13:26:42.675Z,65.41
2019-03-13T13:29:08.991Z,65.74
2019-03-13T13:31:35.303Z,65.37
2019-03-13T13:34:01.643Z,64.93
2019-03-13T13:36:27.932Z,64.87
2019-03-13T13:38:54.250Z,64.18
2019-03-13T13:41:20.602Z,64.23
2019-03-13T13:43:46.860Z,63.85
2019-03-13T13:46:13.185Z,63.80
2019-03-13T13:48:39.492Z,63.10
2019-03-13T13:51:05.803Z,63.03
2019-03-13T13:53:32.112Z,62.94
2019-03-13T13:55:58.456Z,62.80
2019-03-13T13:58:24.756Z,62.61
2019-03-13T14:00:51.073Z,62.51
2019-03-13T14:03:17.386Z,62.36
2019-03-13T14:05:43.732Z,62.15
2019-03-13T14:08:10.089Z,62.28
2019-03-13T14:10:36.399Z,61.54
2019-03-13T14:13:02.740Z,61.65
2019-03-13T14:15:29.081Z,61.56
2019-03-13T14:17:55.390Z,61.24
2019-03-13T14:20:21.712Z,61.09
2019-03-13T14:22:48.026Z,60.37
2019-03-13T14:25:14.350Z,60.38
2019-03-13T14:27:40.650Z,60.20
2019-03-13T14:30:06.963Z,60.22
2019-03-13T14:32:33.282Z,60.02
2019-03-13T14:34:59.611Z,59.89
2019-03-13T14:37:25.908Z,59.52
2019-03-13T14:39:52.245Z,59.39
2019-03-13T14:42:18.556Z,59.36
2019-03-13T14:44:44.860Z,59.24
2019-03-13T14:47:11.175Z,59.17
2019-03-13T14:49:37.485Z,59.22
2019-03-13T14:52:03.805Z,59.03
2019-03-13T14:54:30.113Z,58.89
2019-03-13T14:56:56.422Z,58.65
2019-03-13T14:59:22.724Z,58.55
2019-03-13T15:01:49.051Z,58.39
2019-03-13T15:04:15.356Z,58.44
2019-03-13T15:06:41.719Z,58.43
2019-03-13T15:09:08.004Z,46.06
2019-03-13T15:11:34.320Z,38.33
2019-03-13T15:14:00.630Z,44.69
2019-03-13T15:16:26.943Z,47.32
2019-03-13T15:18:53.243Z,48.47
2019-03-13T15:21:19.546Z,50.29
2019-03-13T15:23:48.660Z,52.01
2019-03-13T15:26:15.112Z,53.50
2019-03-13T15:28:41.502Z,54.74
2019-03-13T15:31:07.771Z,55.72
2019-03-13T15:33:34.084Z,56.91
2019-03-13T15:36:00.392Z,57.82
2019-03-13T15:38:26.705Z,58.97
2019-03-13T15:40:53.040Z,59.76
2019-03-13T15:43:19.330Z,60.64
2019-03-13T15:45:45.636Z,61.45
2019-03-13T15:48:12.021Z,62.17
2019-03-13T15:50:38.294Z,62.73
2019-03-13T15:53:04.601Z,63.54
2019-03-13T15:55:30.915Z,64.53
2019-03-13T15:57:57.240Z,65.21
2019-03-13T16:00:23.558Z,63.75
2019-03-13T16:02:49.864Z,62.17
2019-03-13T16:05:16.201Z,61.16
2019-03-13T16:07:42.511Z,60.47
2019-03-13T16:10:08.841Z,59.80
2019-03-13T16:12:35.177Z,59.20
2019-03-13T16:15:01.493Z,58.78
2019-03-13T16:17:27.795Z,58.37
2019-03-13T16:19:54.107Z,58.01
2019-03-13T16:22:22.956Z,57.86
2019-03-13T16:24:49.263Z,57.60
2019-03-13T16:27:15.572Z,57.30
2019-03-13T16:29:41.883Z,57.10
2019-03-13T16:32:08.192Z,57.01
2019-03-13T16:34:34.519Z,56.88
2019-03-13T16:37:00.837Z,56.75
2019-03-13T16:39:27.142Z,56.57
2019-03-13T16:41:53.474Z,56.45
2019-03-13T16:44:19.774Z,56.31
2019-03-13T16:46:46.113Z,56.22
2019-03-13T16:49:12.412Z,56.13
2019-03-13T16:51:38.720Z,55.95
2019-03-13T16:54:05.031Z,55.78
2019-03-13T16:56:31.357Z,55.75
2019-03-13T16:58:57.656Z,55.60
2019-03-13T17:01:23.970Z,55.62
2019-03-13T17:03:50.289Z,55.44
2019-03-13T17:06:16.650Z,55.33
2019-03-13T17:08:42.938Z,55.43
2019-03-13T17:11:09.298Z,55.34
2019-03-13T17:13:35.576Z,55.13
2019-03-13T17:16:01.879Z,56.00
2019-03-13T17:18:28.212Z,56.44
2019-03-13T17:20:54.521Z,56.27
2019-03-13T17:23:20.829Z,56.11
2019-03-13T17:25:47.136Z,55.93
2019-03-13T17:28:13.449Z,55.82
2019-03-13T17:30:39.756Z,55.73
2019-03-13T17:33:06.069Z,55.62
2019-03-13T17:35:32.382Z,55.59
2019-03-13T17:37:58.684Z,55.52
2019-03-13T17:40:25.090Z,56.03
2019-03-13T17:42:51.624Z,55.83
2019-03-13T17:45:17.953Z,55.65
2019-03-13T17:47:44.259Z,55.54
2019-03-13T17:50:10.568Z,55.32
2019-03-13T17:52:36.920Z,55.25
2019-03-13T17:55:03.234Z,57.46
2019-03-13T17:57:29.560Z,61.17
2019-03-13T17:59:55.874Z,62.16
2019-03-13T18:02:22.176Z,61.61
2019-03-13T18:04:48.503Z,61.00
2019-03-13T18:07:14.807Z,60.53
2019-03-13T18:09:41.119Z,60.00
2019-03-13T18:12:07.425Z,59.75
2019-03-13T18:14:33.769Z,60.22
2019-03-13T18:17:00.077Z,63.87
2019-03-13T18:19:26.446Z,63.96
2019-03-13T18:21:52.732Z,63.54
2019-03-13T18:24:19.036Z,63.06
2019-03-13T18:26:45.387Z,62.53
2019-03-13T18:29:11.701Z,62.31
2019-03-13T18:31:38.067Z,62.04
2019-03-13T18:34:04.486Z,61.89
2019-03-13T18:36:30.807Z,61.66
2019-03-13T18:38:57.122Z,61.50
2019-03-13T18:41:23.563Z,61.36
2019-03-13T18:43:49.748Z,61.29
2019-03-13T18:46:16.056Z,61.09
2019-03-13T18:48:42.359Z,60.98
2019-03-13T18:51:08.670Z,60.98
2019-03-13T18:53:34.975Z,60.71
2019-03-13T18:56:01.280Z,66.38
2019-03-13T18:58:27.617Z,67.16
2019-03-13T19:00:53.924Z,67.92
2019-03-13T19:03:20.241Z,68.78
2019-03-13T19:05:46.546Z,69.62
2019-03-13T19:08:12.848Z,70.38
2019-03-13T19:10:39.160Z,71.19
2019-03-13T19:13:05.468Z,71.83
2019-03-13T19:15:31.803Z,72.60
2019-03-13T19:18:00.463Z,73.21
2019-03-13T19:20:24.451Z,73.52
2019-03-13T19:22:50.773Z,73.79
2019-03-13T19:25:17.079Z,74.19
2019-03-13T19:27:43.402Z,74.69
2019-03-13T19:30:09.703Z,75.16
2019-03-13T19:32:36.070Z,75.36
2019-03-13T19:35:02.388Z,75.85
2019-03-13T19:37:28.700Z,76.25
2019-03-13T19:39:55.007Z,66.13
2019-03-13T19:42:21.334Z,70.97
2019-03-13T19:44:47.649Z,72.61
2019-03-13T19:47:13.957Z,73.33
2019-03-13T19:49:40.259Z,80.64
2019-03-13T19:52:06.569Z,81.23
2019-03-13T19:54:32.909Z,80.71
2019-03-13T19:56:59.205Z,80.42
2019-03-13T19:59:25.510Z,80.29
2019-03-13T20:01:51.857Z,80.40
2019-03-13T20:04:18.161Z,80.52
2019-03-13T20:06:44.459Z,80.53
2019-03-13T20:09:10.763Z,80.75
2019-03-13T20:11:37.106Z,80.81
2019-03-13T20:14:03.445Z,80.89
2019-03-13T20:16:29.729Z,80.86
2019-03-13T20:18:56.036Z,81.09
2019-03-13T20:21:22.339Z,81.21
2019-03-13T20:23:48.640Z,81.13
2019-03-13T20:26:14.946Z,81.24
2019-03-13T20:28:41.269Z,81.37
2019-03-13T20:31:07.571Z,81.48
2019-03-13T20:33:33.910Z,81.72
2019-03-13T20:36:00.215Z,81.68
2019-03-13T20:38:26.534Z,81.81
2019-03-13T20:40:52.842Z,81.86
2019-03-13T20:43:19.147Z,82.15
2019-03-13T20:45:45.497Z,82.29
2019-03-13T20:48:11.807Z,82.48
2019-03-13T20:50:38.337Z,82.71
2019-03-13T20:53:04.423Z,82.86
2019-03-13T20:55:30.731Z,82.99
2019-03-13T20:57:57.042Z,83.12
2019-03-13T21:00:23.381Z,83.23
2019-03-13T21:02:49.731Z,83.29
2019-03-13T21:05:16.040Z,83.72
2019-03-13T21:07:42.415Z,83.82
2019-03-13T21:10:08.656Z,83.93
2019-03-13T21:12:34.963Z,84.14
2019-03-13T21:15:01.273Z,84.51
2019-03-13T21:17:27.596Z,84.80
2019-03-13T21:19:53.913Z,84.92
2019-03-13T21:22:20.228Z,84.96
2019-03-13T21:24:46.534Z,85.09
2019-03-13T21:27:12.845Z,84.93
2019-03-13T21:29:39.147Z,85.05
2019-03-13T21:32:05.490Z,85.26
2019-03-13T21:34:31.795Z,85.38
2019-03-13T21:36:58.136Z,85.50
2019-03-13T21:39:24.440Z,85.45
2019-03-13T21:41:50.745Z,85.61
2019-03-13T21:44:17.056Z,85.67
2019-03-13T21:46:43.362Z,85.59
2019-03-13T21:49:09.673Z,85.51
2019-03-13T21:51:35.981Z,85.42
2019-03-13T21:54:02.331Z,85.54
2019-03-13T21:56:28.642Z,85.58
2019-03-13T21:58:54.951Z,85.87
2019-03-13T22:01:21.254Z,85.90
2019-03-13T22:03:47.560Z,86.00
2019-03-13T22:06:13.879Z,86.17
2019-03-13T22:08:40.181Z,86.35
2019-03-13T22:11:06.507Z,86.50
2019-03-13T22:13:32.815Z,86.66
2019-03-13T22:15:59.317Z,86.86
2019-03-13T22:18:25.443Z,87.31
2019-03-13T22:20:51.749Z,87.44
2019-03-13T22:23:18.056Z,87.83
2019-03-13T22:25:44.359Z,87.95
2019-03-13T22:28:10.718Z,88.33
2019-03-13T22:30:37.045Z,88.43
2019-03-13T22:33:03.346Z,88.67
2019-03-13T22:35:29.657Z,89.03
2019-03-13T22:37:55.967Z,89.29
2019-03-13T22:40:22.284Z,89.30
2019-03-13T22:42:48.596Z,89.57
2019-03-13T22:45:14.903Z,89.87
2019-03-13T22:47:42.942Z,89.99
2019-03-13T22:50:07.529Z,90.29
2019-03-13T22:52:33.864Z,90.41
2019-03-13T22:55:00.398Z,90.48
2019-03-13T22:57:26.483Z,90.63
2019-03-13T22:59:52.810Z,90.72
2019-03-13T23:02:19.192Z,90.90
2019-03-13T23:04:45.498Z,90.98
2019-03-13T23:07:14.838Z,91.21
2019-03-13T23:09:41.149Z,91.46
2019-03-13T23:12:09.877Z,91.66
2019-03-13T23:14:36.196Z,91.74
2019-03-13T23:17:02.510Z,91.70
2019-03-13T23:19:28.836Z,91.76
2019-03-13T23:21:55.144Z,91.87
2019-03-13T23:24:21.448Z,91.84
2019-03-13T23:26:47.763Z,91.87
2019-03-13T23:29:14.080Z,91.93
2019-03-13T23:31:40.387Z,91.96
2019-03-13T23:34:06.703Z,91.96
2019-03-13T23:36:33.009Z,91.69
2019-03-13T23:38:59.316Z,91.70
2019-03-13T23:41:25.686Z,91.71
2019-03-13T23:43:51.994Z,91.74
2019-03-13T23:46:18.297Z,91.79
2019-03-13T23:48:44.604Z,91.70
2019-03-13T23:51:10.961Z,91.58
2019-03-13T23:53:37.277Z,91.68
2019-03-13T23:56:03.584Z,91.72
2019-03-13T23:58:29.889Z,91.71
